createdAt,value
2023-03-29T00:00:13.098Z,11.93
2023-03-29T00:02:48.609Z,12.04
2023-03-29T00:05:17.421Z,12.02
2023-03-29T00:07:46.762Z,12.01
2023-03-29T00:10:15.924Z,11.99
2023-03-29T00:12:44.799Z,11.93
2023-03-29T00:15:11.712Z,11.97
2023-03-29T00:17:40.836Z,11.94
2023-03-29T00:20:10.379Z,11.91
2023-03-29T00:22:39.875Z,11.96
2023-03-29T00:25:10.630Z,11.97
2023-03-29T00:27:37.502Z,11.95
2023-03-29T00:30:06.363Z,11.97
2023-03-29T00:32:33.915Z,11.95
2023-03-29T00:35:05.296Z,11.96
2023-03-29T00:37:32.156Z,11.94
2023-03-29T00:39:59.261Z,11.89
2023-03-29T00:42:28.491Z,11.86
2023-03-29T00:45:10.010Z,11.92
2023-03-29T00:47:43.792Z,11.90
2023-03-29T00:50:18.505Z,11.80
2023-03-29T00:52:53.758Z,11.89
2023-03-29T00:55:24.024Z,11.91
2023-03-29T00:57:58.577Z,11.89
2023-03-29T01:00:32.589Z,11.88
2023-03-29T01:03:02.259Z,11.89
2023-03-29T01:05:39.298Z,11.89
2023-03-29T01:08:11.501Z,11.89
2023-03-29T01:10:51.564Z,11.76
2023-03-29T01:13:27.278Z,11.89
2023-03-29T01:15:56.570Z,11.89
2023-03-29T01:18:25.576Z,11.88
2023-03-29T01:21:16.375Z,11.86
2023-03-29T01:23:46.219Z,11.84
2023-03-29T01:26:21.965Z,11.85
2023-03-29T01:28:59.722Z,11.63
2023-03-29T01:31:32.922Z,11.84
2023-03-29T01:34:10.794Z,11.84
2023-03-29T01:36:49.480Z,11.81
2023-03-29T01:39:16.531Z,11.84
2023-03-29T01:42:01.183Z,11.84
2023-03-29T01:44:35.456Z,11.85
2023-03-29T01:47:11.339Z,11.86
2023-03-29T01:49:51.412Z,11.87
2023-03-29T01:52:42.127Z,11.89
2023-03-29T01:55:29.957Z,11.89
2023-03-29T01:57:58.486Z,11.85
2023-03-29T02:00:27.871Z,11.85
2023-03-29T02:03:00.389Z,11.77
2023-03-29T02:05:32.572Z,11.87
2023-03-29T02:08:05.336Z,11.80
2023-03-29T02:10:36.939Z,11.89
2023-03-29T02:13:04.851Z,11.80
2023-03-29T02:15:31.462Z,11.89
2023-03-29T02:17:58.331Z,11.85
2023-03-29T02:20:27.444Z,11.90
2023-03-29T02:23:17.519Z,11.90
2023-03-29T02:25:46.716Z,11.76
2023-03-29T02:28:14.227Z,11.91
2023-03-29T02:30:47.342Z,11.93
2023-03-29T02:33:27.567Z,11.92
2023-03-29T02:36:29.546Z,11.91
2023-03-29T02:38:59.462Z,11.88
2023-03-29T02:41:26.949Z,11.76
2023-03-29T02:43:58.588Z,11.83
2023-03-29T02:46:26.260Z,11.83
2023-03-29T02:48:59.602Z,11.66
2023-03-29T02:51:32.789Z,11.84
2023-03-29T02:54:03.715Z,11.82
2023-03-29T02:56:30.384Z,11.83
2023-03-29T02:58:57.006Z,11.82
2023-03-29T03:01:26.281Z,11.84
2023-03-29T03:03:53.049Z,11.77
2023-03-29T03:06:21.351Z,11.77
2023-03-29T03:08:52.770Z,11.84
2023-03-29T03:11:21.596Z,11.83
2023-03-29T03:13:51.716Z,11.65
2023-03-29T03:16:20.761Z,11.74
2023-03-29T03:18:48.752Z,11.79
2023-03-29T03:21:15.374Z,11.74
2023-03-29T03:23:42.236Z,11.76
2023-03-29T03:26:08.986Z,11.73
2023-03-29T03:28:35.661Z,11.76
2023-03-29T03:31:04.703Z,11.77
2023-03-29T03:33:31.392Z,11.64
2023-03-29T03:36:02.939Z,11.77
2023-03-29T03:38:30.231Z,11.74
2023-03-29T03:41:01.826Z,11.74
2023-03-29T03:43:32.061Z,11.73
2023-03-29T03:45:58.737Z,11.67
2023-03-29T03:48:25.792Z,11.72
2023-03-29T03:50:54.476Z,11.71
2023-03-29T03:53:24.716Z,11.69
2023-03-29T03:55:53.395Z,11.68
2023-03-29T03:58:20.165Z,11.65
2023-03-29T04:00:53.541Z,11.67
2023-03-29T04:03:20.587Z,11.64
2023-03-29T04:05:47.980Z,11.58
2023-03-29T04:08:15.133Z,11.68
2023-03-29T04:10:52.219Z,11.67
2023-03-29T04:13:22.551Z,11.70
2023-03-29T04:15:49.962Z,11.73
2023-03-29T04:18:19.242Z,11.56
2023-03-29T04:20:48.156Z,11.73
2023-03-29T04:23:16.125Z,11.72
2023-03-29T04:25:45.230Z,11.68
2023-03-29T04:28:12.807Z,11.72
2023-03-29T04:30:39.400Z,11.72
2023-03-29T04:33:06.103Z,11.67
2023-03-29T04:35:33.658Z,11.67
2023-03-29T04:38:00.473Z,11.62
2023-03-29T04:40:29.220Z,11.63
2023-03-29T04:42:58.082Z,11.64
2023-03-29T04:45:25.310Z,11.63
2023-03-29T04:47:54.103Z,11.65
2023-03-29T04:50:28.184Z,11.52
2023-03-29T04:52:57.455Z,11.63
2023-03-29T04:55:24.040Z,11.68
2023-03-29T04:57:51.324Z,11.66
2023-03-29T05:00:20.383Z,11.56
2023-03-29T05:02:47.556Z,11.63
2023-03-29T05:05:15.548Z,11.67
2023-03-29T05:07:45.289Z,11.72
2023-03-29T05:10:11.921Z,11.70
2023-03-29T05:12:38.716Z,11.71
2023-03-29T05:15:06.036Z,11.72
2023-03-29T05:17:32.790Z,11.74
2023-03-29T05:19:59.431Z,11.65
2023-03-29T05:22:29.760Z,11.77
2023-03-29T05:24:57.664Z,11.78
2023-03-29T05:27:24.814Z,11.79
2023-03-29T05:29:53.519Z,11.76
2023-03-29T05:32:23.045Z,11.76
2023-03-29T05:34:50.349Z,11.79
2023-03-29T05:37:17.544Z,11.80
2023-03-29T05:39:44.246Z,11.82
2023-03-29T05:42:13.729Z,11.85
2023-03-29T05:44:40.561Z,11.85
2023-03-29T05:47:07.624Z,11.85
2023-03-29T05:49:34.351Z,11.85
2023-03-29T05:52:01.124Z,11.79
2023-03-29T05:54:27.748Z,11.84
2023-03-29T05:56:56.760Z,11.68
2023-03-29T05:59:24.414Z,11.72
2023-03-29T06:01:52.076Z,11.77
2023-03-29T06:04:19.039Z,11.78
2023-03-29T06:06:48.679Z,11.68
2023-03-29T06:09:15.682Z,11.84
2023-03-29T06:11:42.266Z,11.82
2023-03-29T06:14:08.930Z,11.85
2023-03-29T06:16:36.503Z,11.75
2023-03-29T06:19:03.226Z,11.72
2023-03-29T06:21:30.409Z,11.60
2023-03-29T06:24:00.260Z,11.60
2023-03-29T06:26:29.544Z,11.62
2023-03-29T06:28:56.413Z,11.68
2023-03-29T06:31:23.292Z,11.70
2023-03-29T06:33:52.029Z,11.74
2023-03-29T06:36:20.261Z,11.63
2023-03-29T06:38:47.291Z,11.58
2023-03-29T06:41:14.912Z,11.60
2023-03-29T06:43:42.064Z,11.67
2023-03-29T06:46:12.428Z,11.64
2023-03-29T06:48:42.948Z,11.51
2023-03-29T06:51:09.750Z,11.75
2023-03-29T06:53:36.788Z,11.72
2023-03-29T06:56:09.462Z,11.72
2023-03-29T06:58:39.232Z,11.66
2023-03-29T07:01:07.180Z,11.77
2023-03-29T07:03:39.509Z,11.82
2023-03-29T07:06:10.204Z,11.63
2023-03-29T07:08:43.521Z,11.84
2023-03-29T07:11:12.686Z,11.84
2023-03-29T07:13:43.127Z,11.83
2023-03-29T07:16:12.976Z,11.85
2023-03-29T07:18:44.329Z,11.68
2023-03-29T07:21:12.810Z,11.88
2023-03-29T07:23:40.810Z,11.89
2023-03-29T07:26:14.700Z,11.90
2023-03-29T07:28:55.482Z,11.95
2023-03-29T07:31:22.170Z,11.93
2023-03-29T07:33:53.578Z,11.94
2023-03-29T07:36:22.675Z,11.98
2023-03-29T07:38:50.288Z,12.06
2023-03-29T07:41:19.400Z,12.04
2023-03-29T07:43:50.199Z,12.06
2023-03-29T07:46:19.742Z,12.08
2023-03-29T07:48:46.626Z,11.89
2023-03-29T07:51:13.407Z,12.18
2023-03-29T07:53:40.082Z,12.25
2023-03-29T07:56:07.164Z,12.27
2023-03-29T07:58:36.226Z,12.33
2023-03-29T08:01:03.855Z,12.34
2023-03-29T08:03:30.792Z,12.37
2023-03-29T08:06:00.220Z,12.43
2023-03-29T08:08:26.854Z,12.36
2023-03-29T08:10:54.460Z,12.43
2023-03-29T08:13:21.402Z,12.44
2023-03-29T08:15:48.820Z,12.54
2023-03-29T08:18:15.641Z,12.54
2023-03-29T08:20:42.639Z,12.50
2023-03-29T08:23:09.694Z,12.63
2023-03-29T08:25:36.669Z,12.61
2023-03-29T08:28:03.753Z,12.66
2023-03-29T08:30:33.239Z,12.67
2023-03-29T08:32:59.951Z,12.69
2023-03-29T08:35:26.686Z,12.65
2023-03-29T08:37:55.779Z,12.68
2023-03-29T08:40:27.294Z,12.77
2023-03-29T08:43:14.368Z,12.87
2023-03-29T08:46:02.296Z,12.90
2023-03-29T08:48:34.860Z,12.88
2023-03-29T08:51:29.950Z,12.89
2023-03-29T08:54:17.929Z,12.89
2023-03-29T08:56:47.501Z,12.90
2023-03-29T08:59:28.610Z,12.90
2023-03-29T09:01:58.825Z,12.97
2023-03-29T09:04:31.747Z,12.90
2023-03-29T09:07:03.168Z,12.99
2023-03-29T09:09:33.451Z,13.04
2023-03-29T09:12:09.053Z,13.03
2023-03-29T09:14:54.389Z,13.03
2023-03-29T09:17:39.599Z,13.03
2023-03-29T09:20:31.410Z,13.06
2023-03-29T09:23:28.507Z,13.08
2023-03-29T09:26:12.547Z,13.10
2023-03-29T09:28:55.801Z,13.18
2023-03-29T09:31:30.833Z,13.22
2023-03-29T09:34:23.032Z,13.24
2023-03-29T09:36:54.562Z,13.26
2023-03-29T09:39:26.023Z,13.26
2023-03-29T09:42:01.185Z,13.30
2023-03-29T09:44:36.623Z,13.35
2023-03-29T09:47:09.306Z,13.40
2023-03-29T09:49:40.281Z,13.45
2023-03-29T09:52:13.158Z,13.47
2023-03-29T09:54:40.273Z,13.56
2023-03-29T09:57:13.498Z,13.51
2023-03-29T09:59:40.674Z,13.72
2023-03-29T10:02:09.846Z,13.81
2023-03-29T10:04:36.922Z,13.91
2023-03-29T10:07:06.522Z,13.97
2023-03-29T10:09:34.337Z,13.98
2023-03-29T10:12:08.107Z,14.03
2023-03-29T10:14:43.776Z,14.09
2023-03-29T10:17:18.501Z,14.10
2023-03-29T10:19:52.769Z,14.01
2023-03-29T10:22:24.336Z,14.12
2023-03-29T10:24:57.260Z,14.11
2023-03-29T10:27:27.478Z,14.10
2023-03-29T10:29:58.385Z,14.13
2023-03-29T10:32:37.047Z,14.16
2023-03-29T10:35:15.764Z,14.20
2023-03-29T10:37:45.374Z,14.15
2023-03-29T10:40:27.549Z,14.16
2023-03-29T10:43:02.002Z,14.21
2023-03-29T10:45:31.778Z,14.24
2023-03-29T10:47:59.395Z,14.45
2023-03-29T10:50:37.606Z,14.45
2023-03-29T10:53:14.925Z,14.59
2023-03-29T10:55:54.679Z,14.62
2023-03-29T10:58:41.286Z,14.75
2023-03-29T11:01:15.509Z,14.76
2023-03-29T11:04:07.976Z,14.83
2023-03-29T11:06:46.232Z,14.78
2023-03-29T11:09:57.504Z,14.91
2023-03-29T11:13:01.670Z,14.98
2023-03-29T11:15:48.746Z,15.03
2023-03-29T11:18:52.886Z,15.07
2023-03-29T11:21:42.608Z,15.11
2023-03-29T11:24:22.130Z,15.20
2023-03-29T11:27:23.333Z,15.31
2023-03-29T11:30:19.945Z,15.39
2023-03-29T11:33:26.105Z,15.48
2023-03-29T11:36:53.926Z,15.49
2023-03-29T11:39:23.649Z,15.48
2023-03-29T11:41:58.498Z,15.33
2023-03-29T11:44:30.482Z,15.35
2023-03-29T11:47:07.377Z,15.33
2023-03-29T11:49:51.873Z,15.11
2023-03-29T11:52:28.326Z,15.29
2023-03-29T11:55:14.505Z,15.18
2023-03-29T11:57:47.989Z,15.43
2023-03-29T12:00:23.191Z,15.45
2023-03-29T12:03:22.045Z,15.55
2023-03-29T12:05:58.675Z,15.52
2023-03-29T12:08:37.759Z,15.57
2023-03-29T12:11:14.179Z,15.57
2023-03-29T12:13:47.654Z,15.66
2023-03-29T12:16:29.724Z,15.63
2023-03-29T12:19:01.467Z,15.68
2023-03-29T12:21:29.809Z,15.63
2023-03-29T12:23:58.081Z,15.66
2023-03-29T12:26:53.110Z,15.64
2023-03-29T12:29:29.408Z,15.55
2023-03-29T12:32:32.275Z,15.58
2023-03-29T12:35:05.220Z,15.59
2023-03-29T12:38:09.917Z,15.55
2023-03-29T12:40:43.102Z,15.40
2023-03-29T12:43:27.315Z,15.49
2023-03-29T12:46:16.569Z,15.48
2023-03-29T12:48:46.719Z,15.29
2023-03-29T12:51:28.900Z,15.47
2023-03-29T12:54:18.242Z,15.38
2023-03-29T12:57:00.357Z,15.27
2023-03-29T12:59:47.046Z,15.42
2023-03-29T13:02:17.855Z,15.45
2023-03-29T13:04:57.711Z,15.46
2023-03-29T13:07:26.496Z,15.47
2023-03-29T13:09:58.740Z,15.51
2023-03-29T13:12:42.858Z,15.57
2023-03-29T13:15:16.841Z,15.60
2023-03-29T13:17:51.711Z,15.58
2023-03-29T13:20:37.547Z,15.73
2023-03-29T13:23:22.941Z,15.74
2023-03-29T13:26:11.521Z,15.70
2023-03-29T13:28:41.614Z,15.78
2023-03-29T13:31:46.782Z,15.83
2023-03-29T13:34:32.257Z,15.85
2023-03-29T13:37:53.221Z,15.83
2023-03-29T13:40:44.630Z,15.85
2023-03-29T13:43:21.827Z,15.85
2023-03-29T13:45:57.558Z,15.85
2023-03-29T13:49:04.046Z,15.85
2023-03-29T13:51:39.359Z,15.86
2023-03-29T13:54:26.256Z,15.85
2023-03-29T13:57:04.983Z,15.63
2023-03-29T13:59:47.994Z,15.84
2023-03-29T14:02:32.804Z,15.83
2023-03-29T14:05:04.460Z,15.79
2023-03-29T14:07:36.121Z,15.80
2023-03-29T14:10:03.951Z,15.74
2023-03-29T14:12:39.518Z,15.80
2023-03-29T14:15:10.906Z,15.84
2023-03-29T14:17:38.057Z,15.78
2023-03-29T14:20:09.710Z,15.65
2023-03-29T14:22:37.746Z,15.79
2023-03-29T14:25:17.563Z,15.79
2023-03-29T14:27:44.476Z,15.78
2023-03-29T14:30:23.719Z,15.75
2023-03-29T14:32:51.486Z,15.75
2023-03-29T14:35:18.866Z,15.73
2023-03-29T14:37:46.842Z,15.75
2023-03-29T14:40:19.461Z,15.70
2023-03-29T14:42:51.295Z,15.71
2023-03-29T14:45:21.368Z,15.68
2023-03-29T14:47:49.314Z,15.75
2023-03-29T14:50:20.098Z,15.77
2023-03-29T14:52:50.993Z,15.77
2023-03-29T14:55:23.897Z,15.83
2023-03-29T14:57:53.271Z,15.87
2023-03-29T15:00:42.364Z,15.88
2023-03-29T15:03:16.370Z,15.85
2023-03-29T15:05:49.191Z,15.84
2023-03-29T15:08:23.401Z,15.82
2023-03-29T15:10:50.364Z,15.73
2023-03-29T15:13:24.773Z,15.76
2023-03-29T15:16:00.864Z,15.79
2023-03-29T15:18:35.679Z,15.76
2023-03-29T15:21:02.879Z,15.72
2023-03-29T15:23:37.803Z,15.71
2023-03-29T15:26:30.094Z,15.72
2023-03-29T15:29:17.520Z,15.72
2023-03-29T15:31:56.210Z,15.73
2023-03-29T15:34:28.368Z,15.75
2023-03-29T15:36:57.312Z,15.65
2023-03-29T15:39:25.158Z,15.72
2023-03-29T15:41:53.138Z,15.76
2023-03-29T15:44:26.962Z,15.73
2023-03-29T15:46:55.392Z,15.59
2023-03-29T15:49:22.196Z,15.71
2023-03-29T15:51:48.966Z,15.73
2023-03-29T15:54:20.532Z,15.73
2023-03-29T15:56:55.288Z,15.74
2023-03-29T15:59:24.559Z,15.67
2023-03-29T16:01:54.694Z,15.72
2023-03-29T16:04:22.696Z,15.61
2023-03-29T16:06:53.665Z,15.69
2023-03-29T16:09:21.882Z,15.69
2023-03-29T16:11:49.088Z,15.64
2023-03-29T16:14:27.817Z,15.61
2023-03-29T16:16:55.845Z,15.61
2023-03-29T16:19:25.727Z,15.60
2023-03-29T16:21:53.309Z,15.56
2023-03-29T16:24:25.313Z,15.53
2023-03-29T16:26:58.061Z,15.50
2023-03-29T16:29:25.703Z,15.33
2023-03-29T16:31:53.259Z,15.37
2023-03-29T16:34:22.824Z,15.25
2023-03-29T16:36:49.834Z,15.25
2023-03-29T16:39:18.232Z,15.20
2023-03-29T16:41:48.032Z,15.17
2023-03-29T16:44:22.440Z,15.07
2023-03-29T16:46:50.375Z,15.03
2023-03-29T16:49:18.274Z,14.99
2023-03-29T16:51:48.367Z,14.95
2023-03-29T16:54:17.264Z,14.93
2023-03-29T16:56:43.970Z,14.91
2023-03-29T16:59:10.789Z,14.89
2023-03-29T17:01:38.669Z,14.77
2023-03-29T17:04:05.538Z,14.80
2023-03-29T17:06:34.505Z,14.74
2023-03-29T17:09:01.114Z,14.75
2023-03-29T17:11:28.395Z,14.68
2023-03-29T17:14:00.229Z,14.51
2023-03-29T17:16:29.108Z,14.61
2023-03-29T17:19:06.312Z,14.52
2023-03-29T17:21:33.102Z,14.53
2023-03-29T17:23:59.694Z,14.49
2023-03-29T17:26:26.334Z,14.44
2023-03-29T17:28:55.406Z,14.45
2023-03-29T17:31:24.572Z,14.38
2023-03-29T17:33:53.913Z,14.25
2023-03-29T17:36:25.057Z,14.22
2023-03-29T17:38:51.858Z,14.13
2023-03-29T17:41:19.269Z,14.20
2023-03-29T17:43:45.948Z,14.15
2023-03-29T17:46:12.576Z,14.18
2023-03-29T17:48:39.357Z,14.11
2023-03-29T17:51:08.708Z,14.07
2023-03-29T17:53:35.463Z,14.17
2023-03-29T17:56:02.402Z,14.17
2023-03-29T17:58:29.191Z,14.17
2023-03-29T18:00:58.243Z,14.05
2023-03-29T18:03:29.461Z,14.15
2023-03-29T18:05:56.652Z,13.95
2023-03-29T18:08:26.253Z,14.11
2023-03-29T18:10:52.859Z,14.03
2023-03-29T18:13:25.320Z,14.03
2023-03-29T18:15:56.644Z,14.00
2023-03-29T18:18:25.850Z,13.94
2023-03-29T18:20:52.492Z,13.58
2023-03-29T18:23:19.466Z,13.87
2023-03-29T18:25:46.477Z,13.73
2023-03-29T18:28:13.166Z,13.74
2023-03-29T18:30:42.101Z,13.70
2023-03-29T18:33:08.742Z,13.71
2023-03-29T18:35:35.825Z,13.71
2023-03-29T18:38:03.428Z,13.56
2023-03-29T18:40:30.405Z,13.68
2023-03-29T18:42:57.096Z,13.66
2023-03-29T18:45:23.820Z,13.53
2023-03-29T18:47:50.637Z,13.45
2023-03-29T18:50:19.708Z,13.60
2023-03-29T18:52:49.433Z,13.58
2023-03-29T18:55:16.463Z,13.50
2023-03-29T18:57:43.136Z,13.51
2023-03-29T19:00:12.450Z,13.33
2023-03-29T19:02:42.183Z,13.35
2023-03-29T19:05:11.802Z,13.47
2023-03-29T19:07:38.791Z,13.44
2023-03-29T19:10:06.734Z,13.43
2023-03-29T19:12:35.893Z,13.35
2023-03-29T19:15:02.544Z,13.40
2023-03-29T19:17:29.234Z,13.48
2023-03-29T19:19:56.863Z,13.49
2023-03-29T19:22:23.631Z,13.48
2023-03-29T19:24:50.464Z,13.28
2023-03-29T19:27:21.643Z,13.51
2023-03-29T19:29:48.292Z,13.46
2023-03-29T19:32:15.080Z,13.55
2023-03-29T19:34:44.025Z,13.57
2023-03-29T19:37:13.160Z,13.58
2023-03-29T19:39:41.456Z,13.57
2023-03-29T19:42:08.183Z,13.52
2023-03-29T19:44:38.151Z,13.57
2023-03-29T19:47:09.538Z,13.57
2023-03-29T19:49:38.916Z,13.57
2023-03-29T19:52:06.437Z,13.53
2023-03-29T19:54:35.361Z,13.48
2023-03-29T19:57:02.806Z,13.38
2023-03-29T19:59:31.139Z,13.57
2023-03-29T20:01:57.925Z,13.57
2023-03-29T20:04:25.481Z,13.47
2023-03-29T20:06:52.195Z,13.45
2023-03-29T20:09:18.804Z,13.56
2023-03-29T20:11:46.857Z,13.57
2023-03-29T20:14:14.232Z,13.55
2023-03-29T20:16:42.704Z,13.54
2023-03-29T20:19:09.837Z,13.54
2023-03-29T20:21:39.299Z,13.53
2023-03-29T20:24:06.303Z,13.53
2023-03-29T20:26:32.928Z,13.52
2023-03-29T20:29:01.929Z,13.54
2023-03-29T20:31:31.497Z,13.55
2023-03-29T20:34:00.390Z,13.45
2023-03-29T20:36:30.596Z,13.59
2023-03-29T20:38:59.240Z,13.57
2023-03-29T20:41:26.320Z,13.60
2023-03-29T20:43:58.720Z,13.59
2023-03-29T20:46:35.006Z,13.61
2023-03-29T20:49:07.454Z,13.52
2023-03-29T20:51:39.317Z,13.52
2023-03-29T20:54:07.560Z,13.59
2023-03-29T20:56:42.398Z,13.67
2023-03-29T20:59:12.682Z,13.68
2023-03-29T21:01:40.996Z,13.67
2023-03-29T21:04:09.239Z,13.69
2023-03-29T21:06:36.249Z,13.68
2023-03-29T21:09:04.860Z,13.69
2023-03-29T21:11:31.990Z,13.69
2023-03-29T21:13:58.616Z,13.59
2023-03-29T21:16:25.504Z,13.67
2023-03-29T21:18:53.329Z,13.68
2023-03-29T21:21:20.175Z,13.60
2023-03-29T21:23:46.847Z,13.47
2023-03-29T21:26:13.615Z,13.61
2023-03-29T21:28:42.614Z,13.58
2023-03-29T21:31:11.609Z,13.67
2023-03-29T21:33:38.374Z,13.65
2023-03-29T21:36:05.619Z,13.64
2023-03-29T21:38:34.696Z,13.64
2023-03-29T21:41:02.808Z,13.47
2023-03-29T21:43:32.050Z,13.57
2023-03-29T21:46:01.065Z,13.52
2023-03-29T21:48:27.747Z,13.44
2023-03-29T21:50:56.910Z,13.54
2023-03-29T21:53:24.723Z,13.48
2023-03-29T21:55:52.105Z,13.53
2023-03-29T21:58:19.276Z,13.52
2023-03-29T22:00:47.336Z,13.33
2023-03-29T22:03:16.005Z,13.53
2023-03-29T22:05:44.019Z,13.45
2023-03-29T22:08:15.352Z,13.49
2023-03-29T22:10:42.053Z,13.52
2023-03-29T22:13:09.312Z,13.42
2023-03-29T22:15:39.052Z,13.45
2023-03-29T22:18:05.838Z,13.49
2023-03-29T22:20:34.220Z,13.52
2023-03-29T22:23:03.398Z,13.39
2023-03-29T22:25:30.302Z,13.37
2023-03-29T22:28:01.663Z,13.47
2023-03-29T22:30:28.364Z,13.30
2023-03-29T22:32:55.049Z,13.38
2023-03-29T22:35:21.990Z,13.49
2023-03-29T22:37:48.587Z,13.50
2023-03-29T22:40:15.583Z,13.49
2023-03-29T22:42:42.214Z,13.37
2023-03-29T22:45:16.719Z,13.24
2023-03-29T22:47:43.355Z,13.49
2023-03-29T22:50:10.839Z,13.47
2023-03-29T22:52:37.588Z,13.46
2023-03-29T22:55:07.546Z,13.44
2023-03-29T22:57:34.248Z,13.42
2023-03-29T23:00:00.887Z,13.28
2023-03-29T23:02:27.539Z,13.24
2023-03-29T23:04:54.249Z,13.42
2023-03-29T23:07:20.853Z,13.21
2023-03-29T23:09:50.644Z,13.36
2023-03-29T23:12:17.850Z,13.40
2023-03-29T23:14:45.213Z,13.38
2023-03-29T23:17:12.745Z,13.26
2023-03-29T23:19:39.328Z,13.37
2023-03-29T23:22:08.694Z,13.36
2023-03-29T23:24:35.338Z,13.30
2023-03-29T23:27:03.050Z,13.14
2023-03-29T23:29:32.145Z,13.28
2023-03-29T23:31:59.701Z,13.15
2023-03-29T23:34:26.480Z,13.25
2023-03-29T23:36:53.116Z,13.24
2023-03-29T23:39:19.864Z,13.20
2023-03-29T23:41:46.467Z,13.19
2023-03-29T23:44:13.072Z,13.19
2023-03-29T23:46:42.262Z,13.01
2023-03-29T23:49:10.002Z,13.18
2023-03-29T23:51:42.611Z,13.05
2023-03-29T23:54:12.055Z,12.99
2023-03-29T23:56:39.004Z,13.16
2023-03-29T23:59:05.693Z,13.16
